Time;durP1;ratioP1;P1;durP2;ratioP2;P2;SDS_P1;SDS_P2;PMS_P1;PMS_P2;Temp;Humidity;BMP_temperature;BMP_pressure;BME280_temperature;BME280_humidity;BME280_pressure;Samples;Min_cycle;Max_cycle;Signal;HPM_P1;HPM_P2
2022/09/01 00:04:12;;;;;;;1.93;1.80;;;22.20;91.80;;;;;;7490353;78;26314;-59
2022/09/01 00:14:14;;;;;;;3.17;2.23;;;22.20;92.10;;;;;;7490538;78;26305;-60
2022/09/01 00:24:18;;;;;;;5.60;2.07;;;22.20;92.40;;;;;;7496712;79;26255;-59
2022/09/01 00:34:21;;;;;;;2.80;1.67;;;22.20;92.00;;;;;;7482792;78;26253;-60
2022/09/01 00:44:26;;;;;;;3.67;2.13;;;22.10;91.90;;;;;;7496419;78;26781;-60
2022/09/01 00:54:31;;;;;;;4.93;2.17;;;22.10;91.80;;;;;;7499366;78;26281;-60
2022/09/01 01:04:33;;;;;;;4.97;1.82;;;22.10;91.90;;;;;;7491976;78;26350;-59
2022/09/01 01:14:38;;;;;;;2.72;1.80;;;22.10;91.80;;;;;;7493113;78;26347;-60
2022/09/01 01:24:41;;;;;;;3.43;1.87;;;22.00;91.80;;;;;;7495332;78;26250;-60
2022/09/01 01:34:45;;;;;;;3.40;1.70;;;22.00;91.90;;;;;;7488652;78;26260;-59
2022/09/01 01:44:49;;;;;;;3.93;2.30;;;22.00;91.80;;;;;;7489145;78;26405;-60
2022/09/01 01:54:51;;;;;;;3.00;1.90;;;21.90;91.70;;;;;;7498807;79;26769;-60
2022/09/01 02:04:54;;;;;;;3.70;1.63;;;21.90;91.70;;;;;;7504687;78;26390;-61
2022/09/01 02:14:59;;;;;;;3.45;2.10;;;21.90;91.70;;;;;;7493761;79;26773;-59
2022/09/01 02:25:01;;;;;;;16.87;1.87;;;21.90;91.80;;;;;;7495199;79;26714;-59
2022/09/01 02:35:08;;;;;;;4.83;2.03;;;21.80;91.80;;;;;;7502920;79;26225;-58
2022/09/01 02:45:15;;;;;;;15.25;3.75;;;21.80;91.90;;;;;;7501554;79;26386;-59
2022/09/01 02:55:20;;;;;;;7.60;2.50;;;21.80;91.90;;;;;;7380233;79;26748;-59
2022/09/01 03:05:25;;;;;;;6.30;2.98;;;21.70;91.60;;;;;;7380969;79;26234;-58
2022/09/01 03:15:29;;;;;;;5.23;1.80;;;21.70;91.60;;;;;;7413308;79;26258;-59
2022/09/01 03:25:32;;;;;;;3.90;1.50;;;21.70;91.70;;;;;;7418704;78;26343;-60
2022/09/01 03:35:35;;;;;;;5.20;1.53;;;21.70;91.80;;;;;;7395147;79;26331;-59
2022/09/01 03:45:38;;;;;;;1.47;1.20;;;21.60;91.50;;;;;;7460242;79;26843;-58
2022/09/01 03:55:41;;;;;;;4.97;2.70;;;21.60;91.40;;;;;;7381770;80;26289;-60
2022/09/01 04:05:44;;;;;;;5.67;1.60;;;21.50;91.50;;;;;;7381181;80;26250;-60
2022/09/01 04:15:47;;;;;;;7.03;1.87;;;21.50;91.50;;;;;;7418570;79;26803;-59
2022/09/01 04:25:50;;;;;;;9.23;2.27;;;21.50;91.40;;;;;;7381653;80;26373;-59
2022/09/01 04:35:55;;;;;;;3.93;1.67;;;21.50;91.50;;;;;;7381297;80;26223;-59
2022/09/01 04:45:57;;;;;;;1.67;1.57;;;21.40;91.40;;;;;;7413983;79;26270;-59
2022/09/01 04:56:13;;;;;;;9.60;1.60;;;21.40;91.40;;;;;;7381264;80;26223;-58
2022/09/01 05:06:17;;;;;;;3.27;1.30;;;21.40;91.30;;;;;;7380286;80;26760;-58
2022/09/01 05:16:22;;;;;;;2.97;1.50;;;21.30;91.20;;;;;;7432222;78;26220;-59
2022/09/01 05:26:30;;;;;;;6.27;1.77;;;21.30;91.20;;;;;;7490100;79;26331;-58
2022/09/01 05:36:32;;;;;;;1.63;1.27;;;21.30;91.20;;;;;;7502783;79;26214;-58
2022/09/01 05:46:38;;;;;;;4.93;1.80;;;21.30;91.00;;;;;;7484037;79;26195;-58
2022/09/01 05:56:41;;;;;;;2.33;1.60;;;21.30;91.00;;;;;;7380799;80;26211;-57
2022/09/01 06:06:48;;;;;;;1.23;1.13;;;21.30;90.90;;;;;;7397358;79;26296;-60
2022/09/01 06:16:53;;;;;;;2.67;1.30;;;21.30;90.70;;;;;;7414289;79;26227;-58
2022/09/01 06:26:54;;;;;;;3.60;1.37;;;21.30;90.00;;;;;;7380903;79;26309;-58
2022/09/01 06:36:58;;;;;;;4.83;1.70;;;21.30;89.60;;;;;;7396110;79;26253;-58
2022/09/01 06:47:01;;;;;;;2.17;1.37;;;21.30;88.80;;;;;;7439225;78;26264;-59
2022/09/01 06:57:03;;;;;;;4.90;1.63;;;21.20;89.50;;;;;;7437665;79;26268;-58
2022/09/01 07:07:09;;;;;;;9.93;1.80;;;21.30;88.10;;;;;;7441873;78;26382;-58
2022/09/01 07:17:11;;;;;;;5.47;1.60;;;21.40;88.70;;;;;;7434857;79;26326;-57
2022/09/01 07:27:13;;;;;;;4.80;1.40;;;21.50;88.20;;;;;;7383404;79;26734;-60
2022/09/01 07:37:22;;;;;;;5.00;1.83;;;21.40;87.80;;;;;;7437105;79;26295;-59
2022/09/01 07:47:21;;;;;;;5.50;1.90;;;21.30;87.60;;;;;;7436606;79;26284;-58
2022/09/01 07:57:24;;;;;;;5.23;1.70;;;21.20;88.10;;;;;;7409503;79;26719;-57
2022/09/01 08:07:26;;;;;;;6.70;1.63;;;21.10;88.20;;;;;;7437393;79;26284;-54
2022/09/01 08:17:29;;;;;;;4.57;1.60;;;21.00;88.70;;;;;;7437650;79;26713;-57
2022/09/01 08:27:35;;;;;;;1.53;1.10;;;21.00;87.50;;;;;;7419060;79;26305;-59
2022/09/01 08:37:38;;;;;;;4.13;1.47;;;21.20;88.10;;;;;;7437452;79;26265;-57
2022/09/01 08:47:41;;;;;;;3.47;1.40;;;21.20;88.30;;;;;;7435237;79;26269;-57
2022/09/01 08:57:46;;;;;;;9.73;1.70;;;21.30;88.00;;;;;;7433522;79;26343;-56
2022/09/01 09:07:58;;;;;;;7.03;1.53;;;21.40;87.80;;;;;;7399340;78;26864;-60
2022/09/01 09:18:20;;;;;;;3.80;1.57;;;21.50;88.20;;;;;;7367004;79;26337;-60
2022/09/01 09:28:22;;;;;;;6.13;2.10;;;21.50;88.50;;;;;;7435374;79;27074;-59
2022/09/01 09:38:30;;;;;;;3.10;1.40;;;21.50;88.70;;;;;;7433229;79;26347;-60
2022/09/01 09:48:34;;;;;;;3.30;1.60;;;21.60;89.20;;;;;;7442418;79;26292;-59
2022/09/01 09:58:41;;;;;;;4.10;1.93;;;21.70;89.60;;;;;;7423584;79;26884;-60
2022/09/01 10:08:46;;;;;;;5.43;1.90;;;21.70;90.10;;;;;;7446643;79;26310;-58
2022/09/01 10:18:51;;;;;;;6.73;1.80;;;21.70;89.90;;;;;;7462020;79;26260;-60
2022/09/01 10:28:59;;;;;;;7.80;2.37;;;21.70;90.10;;;;;;7502224;79;26339;-58
2022/09/01 10:39:02;;;;;;;14.27;3.03;;;21.80;90.20;;;;;;7497688;79;26748;-58
2022/09/01 10:49:20;;;;;;;3.03;1.90;;;21.70;90.30;;;;;;7427361;79;26287;-60
2022/09/01 10:59:28;;;;;;;4.00;2.43;;;21.80;90.30;;;;;;7439272;79;26319;-60
2022/09/01 11:09:34;;;;;;;4.20;2.10;;;21.80;90.20;;;;;;7450835;79;26281;-59
2022/09/01 11:19:48;;;;;;;3.47;2.00;;;21.90;90.20;;;;;;7454468;78;26269;-60
2022/09/01 11:30:00;;;;;;;3.40;2.33;;;21.90;90.60;;;;;;7449441;79;26292;-60
2022/09/01 11:40:07;;;;;;;3.10;2.00;;;21.90;90.40;;;;;;7435326;79;26292;-59
2022/09/01 11:50:17;;;;;;;3.83;1.90;;;22.00;89.60;;;;;;7453407;79;26314;-58
2022/09/01 12:00:28;;;;;;;5.57;1.83;;;22.00;88.60;;;;;;7443663;79;26274;-59
2022/09/01 12:10:37;;;;;;;3.20;1.90;;;22.10;87.10;;;;;;7463430;79;26846;-60
2022/09/01 12:20:40;;;;;;;12.17;3.17;;;22.10;84.30;;;;;;7423779;79;26340;-58
2022/09/01 12:30:43;;;;;;;9.33;2.40;;;22.10;84.20;;;;;;7406865;79;26296;-58
2022/09/01 12:40:49;;;;;;;10.80;2.20;;;22.10;84.10;;;;;;7396826;79;26276;-59
2022/09/01 12:50:52;;;;;;;14.70;2.57;;;22.20;84.10;;;;;;7451459;79;26351;-60
2022/09/01 13:01:04;;;;;;;8.13;2.73;;;22.30;84.80;;;;;;7451520;78;26394;-58
2022/09/01 13:11:09;;;;;;;7.00;2.17;;;22.30;83.40;;;;;;7426910;78;26793;-61
2022/09/01 13:21:13;;;;;;;4.27;1.87;;;22.30;84.10;;;;;;7451024;79;26258;-60
2022/09/01 13:31:16;;;;;;;1.97;1.63;;;22.30;82.60;;;;;;7481097;79;26278;-58
2022/09/01 13:41:19;;;;;;;2.90;1.47;;;22.30;82.20;;;;;;7459481;79;27140;-58
2022/09/01 13:51:28;;;;;;;2.10;1.53;;;22.30;81.30;;;;;;7490242;79;26257;-60
2022/09/01 14:01:30;;;;;;;4.12;1.85;;;22.40;82.50;;;;;;7502560;79;26301;-61
2022/09/01 14:11:33;;;;;;;4.23;1.50;;;22.40;81.00;;;;;;7475885;79;26358;-57
2022/09/01 14:21:36;;;;;;;4.73;1.77;;;22.40;81.00;;;;;;7445056;79;26355;-58
2022/09/01 14:31:38;;;;;;;2.43;1.47;;;22.40;81.80;;;;;;7503563;79;26236;-59
2022/09/01 14:41:41;;;;;;;2.25;1.70;;;22.40;81.20;;;;;;7502762;79;26240;-58
2022/09/01 14:51:43;;;;;;;3.10;2.20;;;22.40;80.40;;;;;;7422038;79;26223;-60
2022/09/01 15:01:47;;;;;;;1.85;1.67;;;22.40;77.20;;;;;;7381524;80;26992;-59
2022/09/01 15:11:49;;;;;;;8.43;1.70;;;22.40;77.60;;;;;;7495594;78;26296;-59
2022/09/01 15:21:52;;;;;;;3.35;1.80;;;22.40;78.40;;;;;;7480881;79;26307;-60
2022/09/01 15:31:54;;;;;;;3.83;1.70;;;22.40;80.40;;;;;;7498478;79;26331;-59
2022/09/01 15:41:57;;;;;;;2.87;1.70;;;22.50;79.20;;;;;;7482400;79;26359;-57
2022/09/01 15:51:59;;;;;;;2.80;1.50;;;22.50;78.80;;;;;;7490264;79;26366;-59
2022/09/01 16:02:02;;;;;;;1.40;1.20;;;22.50;80.50;;;;;;7443194;79;26494;-59
2022/09/01 16:12:06;;;;;;;1.70;1.27;;;22.50;79.30;;;;;;7377528;80;26328;-60
2022/09/01 16:22:24;;;;;;;2.53;1.77;;;22.50;80.40;;;;;;7414717;79;26775;-60
2022/09/01 16:32:27;;;;;;;2.00;1.37;;;22.50;77.70;;;;;;7387052;79;26311;-60
2022/09/01 16:42:36;;;;;;;1.55;1.42;;;22.50;76.90;;;;;;7438593;79;26264;-60
2022/09/01 16:52:47;;;;;;;4.65;1.92;;;22.50;75.40;;;;;;7432586;79;26761;-60
2022/09/01 17:02:52;;;;;;;2.25;1.82;;;22.50;75.30;;;;;;7447718;78;26347;-59
2022/09/01 17:12:56;;;;;;;4.65;1.70;;;22.50;75.60;;;;;;7440276;79;26823;-59
2022/09/01 17:23:07;;;;;;;1.80;1.60;;;22.40;75.40;;;;;;7439785;79;26762;-60
2022/09/01 17:33:25;;;;;;;5.50;1.70;;;22.40;76.70;;;;;;7436205;79;26836;-59
2022/09/01 17:43:52;;;;;;;4.15;1.32;;;22.40;76.30;;;;;;7438243;79;26287;-59
2022/09/01 17:54:09;;;;;;;1.87;1.25;;;22.40;77.30;;;;;;7444921;79;26233;-59
2022/09/01 18:04:34;;;;;;;5.33;2.17;;;22.40;77.10;;;;;;7413751;79;26269;-59
2022/09/01 18:14:44;;;;;;;19.20;3.70;;;22.30;79.20;;;;;;7436301;79;26237;-60
2022/09/01 18:25:06;;;;;;;22.07;4.55;;;22.40;90.80;;;;;;7381066;79;26242;-60
2022/09/01 18:35:17;;;;;;;11.45;2.95;;;22.40;93.60;;;;;;7381953;80;26326;-59
2022/09/01 18:45:22;;;;;;;16.32;3.83;;;22.40;95.70;;;;;;7433469;79;26244;-59
2022/09/01 18:55:34;;;;;;;30.32;5.10;;;22.40;95.90;;;;;;7380181;80;26301;-59
2022/09/01 19:05:45;;;;;;;24.20;4.47;;;22.40;95.10;;;;;;7492442;78;26365;-60
2022/09/01 19:15:51;;;;;;;12.37;3.85;;;22.40;94.80;;;;;;7495283;79;26239;-59
2022/09/01 19:25:56;;;;;;;12.80;3.43;;;22.40;94.30;;;;;;7380440;80;26316;-59
2022/09/01 19:36:02;;;;;;;13.80;4.92;;;22.40;94.20;;;;;;7382593;79;26723;-60
2022/09/01 19:46:23;;;;;;;6.43;2.80;;;22.40;93.80;;;;;;7426675;79;27115;-59
2022/09/01 19:56:49;;;;;;;9.88;3.40;;;22.40;93.00;;;;;;7439401;79;26411;-60
2022/09/01 20:06:55;;;;;;;31.47;4.70;;;22.30;92.60;;;;;;7439714;79;26299;-60
2022/09/01 20:17:03;;;;;;;28.95;4.80;;;22.30;92.30;;;;;;7427246;78;26256;-60
2022/09/01 20:27:27;;;;;;;29.13;5.53;;;22.30;92.30;;;;;;7439351;79;27034;-60
2022/09/01 20:37:41;;;;;;;22.53;4.50;;;22.30;92.00;;;;;;7439221;79;26252;-60
2022/09/01 20:47:52;;;;;;;18.77;3.10;;;22.30;92.00;;;;;;7433577;79;26249;-59
2022/09/01 20:57:58;;;;;;;12.33;3.22;;;22.20;92.00;;;;;;7443679;78;26288;-59
2022/09/01 21:08:13;;;;;;;9.57;2.70;;;22.20;92.10;;;;;;7442634;78;26276;-59
2022/09/01 21:18:28;;;;;;;5.80;2.10;;;22.20;91.80;;;;;;7437588;79;26249;-59
2022/09/01 21:28:31;;;;;;;7.40;2.13;;;22.20;92.00;;;;;;7444335;79;26322;-59
2022/09/01 21:38:33;;;;;;;17.40;2.23;;;22.20;92.50;;;;;;7469749;79;26261;-59
2022/09/01 21:48:36;;;;;;;16.13;3.57;;;22.10;89.90;;;;;;7461053;79;26272;-60
2022/09/01 21:58:39;;;;;;;18.12;2.30;;;22.10;91.20;;;;;;7447252;79;26856;-59
2022/09/01 22:08:42;;;;;;;10.70;1.93;;;22.10;91.50;;;;;;7430128;78;26299;-59
2022/09/01 22:18:44;;;;;;;12.28;1.70;;;22.10;91.70;;;;;;7446455;79;27070;-59
2022/09/01 22:28:47;;;;;;;4.80;1.67;;;22.10;91.50;;;;;;7432303;79;26354;-60
2022/09/01 22:38:50;;;;;;;6.13;2.07;;;22.10;91.20;;;;;;7422293;79;26861;-59
2022/09/01 22:48:54;;;;;;;6.03;1.67;;;22.00;91.10;;;;;;7441316;79;26288;-60
2022/09/01 22:59:00;;;;;;;5.73;2.10;;;22.00;91.00;;;;;;7429354;78;26335;-58
2022/09/01 23:09:03;;;;;;;5.10;1.93;;;22.00;90.90;;;;;;7427545;79;26390;-59
2022/09/01 23:19:06;;;;;;;4.07;1.83;;;21.90;90.70;;;;;;7418959;79;26865;-59
2022/09/01 23:29:08;;;;;;;3.60;1.50;;;21.90;90.50;;;;;;7427761;79;26311;-59
2022/09/01 23:39:11;;;;;;;2.70;1.47;;;21.90;90.30;;;;;;7427952;79;26283;-59
2022/09/01 23:49:16;;;;;;;6.87;1.50;;;21.90;90.00;;;;;;7426383;79;26852;-59
2022/09/01 23:59:18;;;;;;;9.07;1.73;;;21.80;90.00;;;;;;7436565;79;26375;-59
